LRI582 YWBL-YMAV
Flight info
| Callsign | LRI582 |
|---|---|
| Flight time | N/A |
| Altitude | 13000 |
| Route | 381746S1422654E 382446S1422913E 383030S1423856E DCT 383622S1424944E 383812S1425607E 383810S1425957E 383939S1430414E 384211S1430751E 384511S1431109E 384710S1431429E 384603S1431859E 384618S1432135E 384733S1432343E 384855S1432619E 385153S1432931E 385223S1433259E 385114S1433516E 384525S1434242E 384302S1434619E 384208S1435037E DCT 383904S1435409E 383059S1440154E 382850S1440606E 382519S1441306E 382341S1441646E 382027S1442023E 381311S1442614E DCT 380316S1442753E |
| Aircraft | BE9L/L-SDFG/C |
Departure
| Time | N/A |
|---|---|
| Airport | Warrnambool Airport (YWBL) |
Arrival
| Time | 2026-05-07 13:58 |
|---|---|
| Airport | Melbourne Avalon International Airport (YMAV) |
| Time | Latitude | Longitude | Altitude | Speed | Heading |
|---|---|---|---|---|---|
| 2026-05-07 13:24 | -38.83966 | 143.46483 | 1501 ft | 134 kts | 140° |
| 2026-05-07 13:24 | -38.84685 | 143.47260 | 1500 ft | 134 kts | 140° |
| 2026-05-07 13:24 | -38.85398 | 143.48025 | 1500 ft | 133 kts | 140° |
| 2026-05-07 13:24 | -38.86115 | 143.48802 | 1500 ft | 133 kts | 138° |
| 2026-05-07 13:25 | -38.86544 | 143.49817 | 1504 ft | 132 kts | 101° |
| 2026-05-07 13:25 | -38.86709 | 143.50975 | 1504 ft | 133 kts | 101° |
| 2026-05-07 13:25 | -38.86886 | 143.52145 | 1502 ft | 133 kts | 101° |
| 2026-05-07 13:25 | -38.87058 | 143.53308 | 1501 ft | 134 kts | 101° |
| 2026-05-07 13:26 | -38.87217 | 143.54492 | 1499 ft | 134 kts | 92° |
| 2026-05-07 13:26 | -38.86939 | 143.55611 | 1507 ft | 132 kts | 57° |
| 2026-05-07 13:26 | -38.86440 | 143.56595 | 1503 ft | 133 kts | 58° |
| 2026-05-07 13:26 | -38.85946 | 143.57594 | 1501 ft | 133 kts | 58° |
| 2026-05-07 13:27 | -38.85442 | 143.58597 | 1501 ft | 133 kts | 54° |
| 2026-05-07 13:27 | -38.84819 | 143.59457 | 1502 ft | 133 kts | 45° |
| 2026-05-07 13:27 | -38.84158 | 143.60309 | 1501 ft | 133 kts | 45° |
| 2026-05-07 13:27 | -38.83285 | 143.61433 | 1501 ft | 134 kts | 45° |
| 2026-05-07 13:28 | -38.82847 | 143.61997 | 1501 ft | 134 kts | 45° |
| 2026-05-07 13:28 | -38.82186 | 143.62845 | 1501 ft | 134 kts | 45° |
| 2026-05-07 13:28 | -38.81530 | 143.63687 | 1501 ft | 134 kts | 45° |
| 2026-05-07 13:28 | -38.80871 | 143.64531 | 1500 ft | 134 kts | 45° |
| 2026-05-07 13:29 | -38.80207 | 143.65381 | 1500 ft | 134 kts | 45° |
| 2026-05-07 13:29 | -38.79552 | 143.66220 | 1501 ft | 134 kts | 45° |
| 2026-05-07 13:29 | -38.78884 | 143.67075 | 1501 ft | 134 kts | 44° |
| 2026-05-07 13:29 | -38.78223 | 143.67920 | 1501 ft | 134 kts | 44° |
| 2026-05-07 13:30 | -38.77568 | 143.68758 | 1501 ft | 134 kts | 44° |
| 2026-05-07 13:30 | -38.76902 | 143.69608 | 1501 ft | 134 kts | 44° |
| 2026-05-07 13:30 | -38.76234 | 143.70460 | 1501 ft | 135 kts | 44° |
| 2026-05-07 13:30 | -38.75586 | 143.71310 | 1500 ft | 134 kts | 49° |
| 2026-05-07 13:31 | -38.74985 | 143.72226 | 1500 ft | 134 kts | 49° |
| 2026-05-07 13:31 | -38.74380 | 143.73141 | 1501 ft | 134 kts | 49° |
| 2026-05-07 13:31 | -38.73775 | 143.74059 | 1501 ft | 134 kts | 49° |
| 2026-05-07 13:31 | -38.73171 | 143.74973 | 1501 ft | 134 kts | 49° |
| 2026-05-07 13:32 | -38.72568 | 143.75886 | 1501 ft | 134 kts | 49° |
| 2026-05-07 13:32 | -38.71959 | 143.76810 | 1501 ft | 134 kts | 50° |
| 2026-05-07 13:32 | -38.71573 | 143.77872 | 1501 ft | 134 kts | 76° |
| 2026-05-07 13:32 | -38.71332 | 143.79031 | 1502 ft | 134 kts | 74° |
| 2026-05-07 13:33 | -38.71088 | 143.80174 | 1500 ft | 134 kts | 74° |
| 2026-05-07 13:33 | -38.70841 | 143.81334 | 1500 ft | 134 kts | 75° |
| 2026-05-07 13:33 | -38.70598 | 143.82484 | 1501 ft | 134 kts | 75° |
| 2026-05-07 13:33 | -38.70355 | 143.83629 | 1501 ft | 134 kts | 75° |
| 2026-05-07 13:34 | -38.69908 | 143.84650 | 1502 ft | 133 kts | 43° |
| 2026-05-07 13:34 | -38.68531 | 143.86255 | 1502 ft | 134 kts | 42° |
| 2026-05-07 13:34 | -38.67839 | 143.87064 | 1501 ft | 134 kts | 42° |
| 2026-05-07 13:35 | -38.67150 | 143.87868 | 1501 ft | 134 kts | 42° |
| 2026-05-07 13:35 | -38.66458 | 143.88673 | 1500 ft | 134 kts | 42° |
| 2026-05-07 13:35 | -38.65766 | 143.89478 | 1500 ft | 134 kts | 42° |
| 2026-05-07 13:35 | -38.65068 | 143.90273 | 1501 ft | 134 kts | 39° |
| 2026-05-07 13:36 | -38.64328 | 143.90988 | 1501 ft | 134 kts | 37° |
| 2026-05-07 13:36 | -38.63577 | 143.91710 | 1501 ft | 134 kts | 37° |
| 2026-05-07 13:36 | -38.62827 | 143.92432 | 1501 ft | 135 kts | 37° |
| 2026-05-07 13:36 | -38.62085 | 143.93144 | 1501 ft | 135 kts | 37° |
| 2026-05-07 13:37 | -38.61332 | 143.93867 | 1501 ft | 135 kts | 37° |
| 2026-05-07 13:37 | -38.60580 | 143.94589 | 1500 ft | 134 kts | 37° |
| 2026-05-07 13:37 | -38.59832 | 143.95306 | 1500 ft | 134 kts | 37° |
| 2026-05-07 13:37 | -38.58833 | 143.96265 | 1501 ft | 134 kts | 37° |
| 2026-05-07 13:38 | -38.58334 | 143.96742 | 1501 ft | 134 kts | 37° |
| 2026-05-07 13:38 | -38.57585 | 143.97461 | 1501 ft | 134 kts | 37° |
| 2026-05-07 13:38 | -38.56840 | 143.98173 | 1501 ft | 135 kts | 37° |
| 2026-05-07 13:38 | -38.56082 | 143.98900 | 1501 ft | 135 kts | 37° |
| 2026-05-07 13:39 | -38.55330 | 143.99618 | 1501 ft | 135 kts | 37° |
| 2026-05-07 13:39 | -38.54578 | 144.00339 | 1501 ft | 135 kts | 37° |
| 2026-05-07 13:39 | -38.53825 | 144.01059 | 1500 ft | 135 kts | 37° |
| 2026-05-07 13:39 | -38.52834 | 144.02008 | 1500 ft | 134 kts | 37° |
| 2026-05-07 13:40 | -38.52333 | 144.02486 | 1501 ft | 134 kts | 37° |
| 2026-05-07 13:40 | -38.51611 | 144.03252 | 1496 ft | 134 kts | 51° |
| 2026-05-07 13:40 | -38.51094 | 144.04237 | 1503 ft | 134 kts | 57° |
| 2026-05-07 13:40 | -38.50575 | 144.05237 | 1501 ft | 134 kts | 56° |
| 2026-05-07 13:41 | -38.50067 | 144.06221 | 1501 ft | 134 kts | 56° |
| 2026-05-07 13:41 | -38.49545 | 144.07233 | 1501 ft | 135 kts | 56° |
| 2026-05-07 13:41 | -38.49030 | 144.08232 | 1501 ft | 135 kts | 57° |
| 2026-05-07 13:41 | -38.48518 | 144.09225 | 1500 ft | 134 kts | 57° |
| 2026-05-07 13:42 | -38.48002 | 144.10228 | 1500 ft | 134 kts | 57° |
| 2026-05-07 13:42 | -38.47501 | 144.11227 | 1501 ft | 134 kts | 57° |
| 2026-05-07 13:42 | -38.46997 | 144.12231 | 1501 ft | 135 kts | 57° |
| 2026-05-07 13:42 | -38.46492 | 144.13237 | 1501 ft | 135 kts | 57° |
| 2026-05-07 13:43 | -38.45982 | 144.14255 | 1501 ft | 135 kts | 57° |
| 2026-05-07 13:43 | -38.45476 | 144.15265 | 1501 ft | 135 kts | 57° |
| 2026-05-07 13:43 | -38.44971 | 144.16273 | 1501 ft | 135 kts | 57° |
| 2026-05-07 13:43 | -38.44463 | 144.17290 | 1500 ft | 135 kts | 57° |
| 2026-05-07 13:44 | -38.43962 | 144.18288 | 1500 ft | 134 kts | 57° |
| 2026-05-07 13:44 | -38.43455 | 144.19299 | 1501 ft | 134 kts | 57° |
| 2026-05-07 13:44 | -38.42954 | 144.20297 | 1501 ft | 135 kts | 57° |
| 2026-05-07 13:44 | -38.42444 | 144.21310 | 1501 ft | 135 kts | 57° |
| 2026-05-07 13:45 | -38.41959 | 144.22327 | 1501 ft | 135 kts | 61° |
| 2026-05-07 13:45 | -38.41494 | 144.23381 | 1501 ft | 135 kts | 60° |
| 2026-05-07 13:45 | -38.41031 | 144.24422 | 1501 ft | 135 kts | 60° |
| 2026-05-07 13:45 | -38.40411 | 144.25816 | 1501 ft | 135 kts | 60° |
| 2026-05-07 13:46 | -38.40103 | 144.26509 | 1500 ft | 135 kts | 60° |
| 2026-05-07 13:46 | -38.39641 | 144.27545 | 1500 ft | 134 kts | 60° |
| 2026-05-07 13:46 | -38.39021 | 144.28433 | 1503 ft | 134 kts | 40° |
| 2026-05-07 13:46 | -38.38314 | 144.29221 | 1502 ft | 134 kts | 41° |
| 2026-05-07 13:47 | -38.37615 | 144.30006 | 1501 ft | 135 kts | 41° |
| 2026-05-07 13:47 | -38.36913 | 144.30792 | 1501 ft | 135 kts | 41° |
| 2026-05-07 13:47 | -38.36197 | 144.31592 | 1501 ft | 135 kts | 41° |
| 2026-05-07 13:47 | -38.35488 | 144.32382 | 1501 ft | 135 kts | 41° |
| 2026-05-07 13:48 | -38.34784 | 144.33170 | 1501 ft | 135 kts | 41° |
| 2026-05-07 13:48 | -38.34072 | 144.33945 | 1500 ft | 135 kts | 37° |
| 2026-05-07 13:48 | -38.33281 | 144.34596 | 1501 ft | 134 kts | 32° |
| 2026-05-07 13:48 | -38.32494 | 144.35233 | 1501 ft | 135 kts | 32° |
| 2026-05-07 13:49 | -38.31703 | 144.35870 | 1501 ft | 135 kts | 32° |
| 2026-05-07 13:49 | -38.30899 | 144.36519 | 1501 ft | 135 kts | 32° |
| 2026-05-07 13:49 | -38.30110 | 144.37154 | 1501 ft | 135 kts | 32° |
| 2026-05-07 13:49 | -38.29310 | 144.37799 | 1501 ft | 135 kts | 32° |
| 2026-05-07 13:50 | -38.28516 | 144.38438 | 1501 ft | 135 kts | 32° |
| 2026-05-07 13:50 | -38.27714 | 144.39085 | 1500 ft | 135 kts | 32° |
| 2026-05-07 13:50 | -38.26660 | 144.39934 | 1500 ft | 135 kts | 32° |
| 2026-05-07 13:50 | -38.26140 | 144.40352 | 1500 ft | 130 kts | 32° |
| 2026-05-07 13:51 | -38.25393 | 144.40955 | 1521 ft | 123 kts | 32° |
| 2026-05-07 13:51 | -38.24679 | 144.41530 | 1495 ft | 121 kts | 32° |
| 2026-05-07 13:51 | -38.23982 | 144.42090 | 1492 ft | 117 kts | 32° |
| 2026-05-07 13:51 | -38.23298 | 144.42639 | 1492 ft | 113 kts | 32° |
| 2026-05-07 13:52 | -38.22647 | 144.43164 | 1493 ft | 110 kts | 32° |
| 2026-05-07 13:52 | -38.21975 | 144.43593 | 1493 ft | 107 kts | 21° |
| 2026-05-07 13:52 | -38.21256 | 144.43779 | 1493 ft | 103 kts | 8° |
| 2026-05-07 13:52 | -38.20557 | 144.43909 | 1510 ft | 94 kts | 8° |
| 2026-05-07 13:53 | -38.19859 | 144.44032 | 1549 ft | 108 kts | 7° |
| 2026-05-07 13:53 | -38.19069 | 144.44168 | 1520 ft | 117 kts | 8° |
| 2026-05-07 13:53 | -38.18260 | 144.44307 | 1528 ft | 118 kts | 8° |
| 2026-05-07 13:53 | -38.17450 | 144.44447 | 1523 ft | 115 kts | 8° |
| 2026-05-07 13:54 | -38.16681 | 144.44579 | 1504 ft | 110 kts | 8° |
| 2026-05-07 13:54 | -38.15928 | 144.44707 | 1490 ft | 107 kts | 8° |
| 2026-05-07 13:54 | -38.15190 | 144.44832 | 1475 ft | 103 kts | 7° |
| 2026-05-07 13:54 | -38.14496 | 144.44946 | 1461 ft | 100 kts | 7° |
| 2026-05-07 13:55 | -38.13804 | 144.45064 | 1449 ft | 98 kts | 7° |
| 2026-05-07 13:55 | -38.13117 | 144.45180 | 1413 ft | 100 kts | 7° |
| 2026-05-07 13:55 | -38.12421 | 144.45299 | 1343 ft | 103 kts | 8° |
| 2026-05-07 13:55 | -38.11684 | 144.45425 | 1238 ft | 108 kts | 8° |
| 2026-05-07 13:56 | -38.10936 | 144.45555 | 1111 ft | 108 kts | 8° |
| 2026-05-07 13:56 | -38.10203 | 144.45676 | 952 ft | 102 kts | 7° |
| 2026-05-07 13:56 | -38.09528 | 144.45792 | 808 ft | 96 kts | 7° |
| 2026-05-07 13:56 | -38.08876 | 144.45901 | 687 ft | 93 kts | 8° |
| 2026-05-07 13:57 | -38.08230 | 144.46013 | 577 ft | 93 kts | 7° |
| 2026-05-07 13:57 | -38.07584 | 144.46123 | 466 ft | 93 kts | 8° |
| 2026-05-07 13:57 | -38.06946 | 144.46245 | 362 ft | 93 kts | 9° |
| 2026-05-07 13:57 | -38.06302 | 144.46343 | 257 ft | 92 kts | 6° |
| 2026-05-07 13:58 | -38.05654 | 144.46458 | 113 ft | 96 kts | 7° |
| 2026-05-07 13:58 | -38.05001 | 144.46552 | 38 ft | 90 kts | 9° |
| 2026-05-07 13:58 | -38.04505 | 144.46640 | 37 ft | 47 kts | 9° |
| 2026-05-07 13:58 | -38.04210 | 144.46695 | 37 ft | 34 kts | 6° |
| 2026-05-07 13:59 | -38.04040 | 144.46715 | 34 ft | 18 kts | 7° |
| 2026-05-07 13:59 | -38.03904 | 144.46742 | 33 ft | 21 kts | 8° |
| 2026-05-07 13:59 | -38.03722 | 144.46773 | 31 ft | 30 kts | 6° |
| 2026-05-07 13:59 | -38.03523 | 144.46808 | 30 ft | 23 kts | 8° |
| 2026-05-07 14:00 | -38.03370 | 144.46832 | 33 ft | 17 kts | 10° |
| 2026-05-07 14:00 | -38.03267 | 144.46852 | 33 ft | 9 kts | 11° |
| 2026-05-07 14:00 | -38.03237 | 144.46936 | 33 ft | 14 kts | 96° |
| 2026-05-07 14:00 | -38.03242 | 144.47090 | 33 ft | 19 kts | 82° |
| 2026-05-07 14:01 | -38.03193 | 144.47221 | 33 ft | 15 kts | 54° |
| 2026-05-07 14:01 | -38.03107 | 144.47301 | 35 ft | 15 kts | 24° |
| 2026-05-07 14:01 | -38.03014 | 144.47330 | 36 ft | 11 kts | 10° |
| 2026-05-07 14:01 | -38.02918 | 144.47350 | 37 ft | 16 kts | 11° |
| 2026-05-07 14:02 | -38.02831 | 144.47369 | 37 ft | 9 kts | 27° |
| 2026-05-07 14:02 | -38.02805 | 144.47450 | 37 ft | 10 kts | 76° |
| 2026-05-07 14:02 | -38.02741 | 144.47490 | 38 ft | 12 kts | 4° |
| 2026-05-07 14:02 | -38.02717 | 144.47492 | 39 ft | 0 kts | 5° |